createdAt,value
2023-01-26T00:01:44.753Z,5.30
2023-01-26T00:04:12.727Z,5.10
2023-01-26T00:06:40.702Z,5.20
2023-01-26T00:09:14.675Z,5.60
2023-01-26T00:14:10.189Z,5.10
2023-01-26T00:16:38.996Z,5.80
2023-01-26T00:19:06.856Z,5.30
2023-01-26T00:21:34.636Z,5.00
2023-01-26T00:24:04.482Z,5.10
2023-01-26T00:26:32.444Z,4.80
2023-01-26T00:29:00.296Z,5.30
2023-01-26T00:31:28.482Z,5.60
2023-01-26T00:33:57.045Z,5.30
2023-01-26T00:36:27.480Z,5.60
2023-01-26T00:38:56.320Z,5.20
2023-01-26T00:41:40.085Z,5.70
2023-01-26T00:44:07.874Z,5.30
2023-01-26T00:46:38.017Z,5.20
2023-01-26T00:49:06.032Z,5.40
2023-01-26T00:51:34.360Z,5.00
2023-01-26T00:54:02.134Z,5.70
2023-01-26T00:56:30.013Z,5.40
2023-01-26T00:59:00.321Z,5.50
2023-01-26T01:01:28.108Z,5.40
2023-01-26T01:03:55.873Z,5.40
2023-01-26T01:06:24.018Z,5.10
2023-01-26T01:08:51.909Z,4.90
2023-01-26T01:11:19.706Z,5.10
2023-01-26T01:13:47.468Z,5.20
2023-01-26T01:16:16.655Z,5.10
2023-01-26T01:18:44.973Z,5.50
2023-01-26T01:21:15.649Z,5.40
2023-01-26T01:23:43.877Z,5.40
2023-01-26T01:26:13.346Z,5.20
2023-01-26T01:28:43.211Z,4.70
2023-01-26T01:31:13.661Z,5.50
2023-01-26T01:33:42.750Z,5.40
2023-01-26T01:36:14.228Z,5.20
2023-01-26T01:38:43.633Z,5.30
2023-01-26T01:41:12.692Z,5.40
2023-01-26T01:43:40.873Z,5.20
2023-01-26T01:46:32.210Z,5.00
2023-01-26T01:49:05.275Z,5.80
2023-01-26T01:51:35.966Z,5.30
2023-01-26T01:54:10.939Z,5.40
2023-01-26T01:56:43.043Z,5.10
2023-01-26T01:59:12.210Z,5.30
2023-01-26T02:01:41.343Z,5.10
2023-01-26T02:04:09.662Z,5.00
2023-01-26T02:06:48.475Z,5.00
2023-01-26T02:09:33.363Z,5.10
2023-01-26T02:12:04.764Z,4.70
2023-01-26T02:14:33.564Z,5.10
2023-01-26T02:17:01.314Z,4.80
2023-01-26T02:20:01.218Z,4.70
2023-01-26T02:22:45.042Z,4.60
2023-01-26T02:25:38.985Z,5.00
2023-01-26T02:28:07.174Z,4.40
2023-01-26T02:30:35.152Z,4.70
2023-01-26T02:33:03.148Z,4.70
2023-01-26T02:35:31.278Z,4.50
2023-01-26T02:38:00.477Z,4.80
2023-01-26T02:40:47.355Z,4.80
2023-01-26T02:43:17.041Z,4.80
2023-01-26T02:45:44.890Z,4.60
2023-01-26T02:48:12.670Z,4.70
2023-01-26T02:50:41.303Z,4.40
2023-01-26T02:53:09.167Z,4.50
2023-01-26T02:55:36.968Z,4.70
2023-01-26T02:58:05.347Z,4.60
2023-01-26T03:00:41.788Z,4.70
2023-01-26T03:03:18.101Z,4.40
2023-01-26T03:05:46.592Z,3.90
2023-01-26T03:08:14.858Z,4.20
2023-01-26T03:10:42.918Z,4.70
2023-01-26T03:13:10.902Z,4.50
2023-01-26T03:15:52.699Z,4.60
2023-01-26T03:18:38.582Z,4.60
2023-01-26T03:24:10.404Z,4.60
2023-01-26T03:26:56.173Z,4.80
2023-01-26T03:29:26.579Z,4.70
2023-01-26T03:31:55.818Z,4.70
2023-01-26T03:34:23.589Z,4.80
2023-01-26T03:36:51.849Z,4.30
2023-01-26T03:39:36.378Z,4.10
2023-01-26T03:42:21.042Z,4.80
2023-01-26T03:45:04.792Z,4.10
2023-01-26T03:47:49.795Z,4.60
2023-01-26T03:50:33.782Z,4.40
2023-01-26T03:53:17.839Z,4.30
2023-01-26T03:58:30.283Z,4.50
2023-01-26T04:00:58.277Z,4.30
2023-01-26T04:03:42.297Z,4.30
2023-01-26T04:06:26.039Z,4.20
2023-01-26T04:08:53.967Z,4.20
2023-01-26T04:11:21.750Z,4.10
2023-01-26T04:14:05.608Z,4.10
2023-01-26T04:16:50.783Z,4.30
2023-01-26T04:19:34.716Z,4.60
2023-01-26T04:22:04.185Z,4.30
2023-01-26T04:24:34.301Z,4.40
2023-01-26T04:27:02.176Z,4.20
2023-01-26T04:29:35.675Z,4.20
2023-01-26T04:32:03.816Z,4.00
2023-01-26T04:34:33.381Z,3.90
2023-01-26T04:37:03.088Z,4.10
2023-01-26T04:39:42.708Z,4.20
2023-01-26T04:42:10.647Z,4.30
2023-01-26T04:44:38.846Z,4.10
2023-01-26T04:47:07.231Z,4.30
2023-01-26T04:49:35.288Z,4.40
2023-01-26T04:52:03.692Z,4.30
2023-01-26T04:54:31.521Z,4.20
2023-01-26T04:57:00.163Z,4.30
2023-01-26T04:59:28.400Z,4.10
2023-01-26T05:02:00.203Z,4.20
2023-01-26T05:04:28.260Z,4.30
2023-01-26T05:06:56.193Z,4.50
2023-01-26T05:09:26.238Z,4.50
2023-01-26T05:12:27.544Z,4.20
2023-01-26T05:15:11.527Z,4.30
2023-01-26T05:17:59.860Z,4.50
2023-01-26T05:20:43.712Z,4.20
2023-01-26T05:23:19.611Z,4.20
2023-01-26T05:25:50.320Z,4.60
2023-01-26T05:28:18.267Z,4.30
2023-01-26T05:30:47.683Z,4.20
2023-01-26T05:33:16.324Z,4.20
2023-01-26T05:35:44.163Z,4.50
2023-01-26T05:38:12.187Z,4.50
2023-01-26T05:40:39.971Z,4.70
2023-01-26T05:43:08.451Z,4.20
2023-01-26T05:45:52.371Z,4.20
2023-01-26T05:48:22.222Z,4.30
2023-01-26T05:50:52.554Z,4.60
2023-01-26T05:53:22.205Z,4.00
2023-01-26T05:55:50.322Z,4.10
2023-01-26T05:58:21.743Z,4.20
2023-01-26T06:00:50.012Z,4.30
2023-01-26T06:03:22.785Z,4.30
2023-01-26T06:05:55.415Z,5.20
2023-01-26T06:08:33.917Z,4.80
2023-01-26T06:11:21.960Z,4.60
2023-01-26T06:14:05.783Z,5.10
2023-01-26T06:16:34.358Z,4.40
2023-01-26T06:19:02.964Z,4.70
2023-01-26T06:21:31.754Z,4.30
2023-01-26T06:23:59.702Z,4.30
2023-01-26T06:26:27.606Z,4.60
2023-01-26T06:28:57.302Z,4.50
2023-01-26T06:31:30.649Z,4.40
2023-01-26T06:34:01.397Z,4.80
2023-01-26T06:36:29.419Z,4.60
2023-01-26T06:39:00.772Z,4.60
2023-01-26T06:41:29.180Z,4.50
2023-01-26T06:43:59.083Z,4.60
2023-01-26T06:46:27.209Z,4.60
2023-01-26T06:48:55.863Z,4.60
2023-01-26T06:51:43.138Z,4.70
2023-01-26T06:54:12.805Z,4.50
2023-01-26T06:56:56.713Z,4.50
2023-01-26T06:59:40.700Z,4.70
2023-01-26T07:02:24.599Z,4.80
2023-01-26T07:04:53.433Z,4.70
2023-01-26T07:07:21.247Z,4.30
2023-01-26T07:09:49.390Z,5.10
2023-01-26T07:12:17.153Z,4.60
2023-01-26T07:14:44.966Z,4.80
2023-01-26T07:17:12.937Z,4.70
2023-01-26T07:19:40.704Z,4.80
2023-01-26T07:22:08.781Z,4.70
2023-01-26T07:24:36.691Z,4.80
2023-01-26T07:27:04.549Z,4.70
2023-01-26T07:29:32.359Z,5.20
2023-01-26T07:32:00.231Z,5.30
2023-01-26T07:34:28.176Z,5.40
2023-01-26T07:36:56.119Z,5.10
2023-01-26T07:39:24.369Z,5.10
2023-01-26T07:41:52.244Z,5.30
2023-01-26T07:44:48.911Z,5.30
2023-01-26T07:47:16.729Z,5.30
2023-01-26T07:49:48.355Z,5.10
2023-01-26T07:54:46.191Z,5.30
2023-01-26T07:57:14.054Z,4.80
2023-01-26T07:59:41.913Z,5.30
2023-01-26T08:02:10.500Z,5.10
2023-01-26T08:04:38.397Z,5.20
2023-01-26T08:07:06.246Z,5.60
2023-01-26T08:09:34.261Z,5.10
2023-01-26T08:12:02.102Z,5.70
2023-01-26T08:14:45.160Z,5.50
2023-01-26T08:17:15.477Z,7.60
2023-01-26T08:19:44.087Z,5.50
2023-01-26T08:22:12.101Z,5.10
2023-01-26T08:24:39.891Z,4.90
2023-01-26T08:27:08.479Z,5.00
2023-01-26T08:29:36.392Z,5.40
2023-01-26T08:32:04.320Z,4.90
2023-01-26T08:34:32.302Z,5.10
2023-01-26T08:37:00.192Z,4.80
2023-01-26T08:39:28.311Z,5.20
2023-01-26T08:41:56.147Z,5.20
2023-01-26T08:44:23.908Z,5.60
2023-01-26T08:46:51.886Z,5.10
2023-01-26T08:49:19.664Z,5.80
2023-01-26T08:51:47.509Z,5.00
2023-01-26T08:54:15.325Z,6.80
2023-01-26T08:56:43.161Z,5.40
2023-01-26T08:59:11.206Z,5.10
2023-01-26T09:01:38.977Z,5.50
2023-01-26T09:04:06.802Z,5.00
2023-01-26T09:06:34.682Z,5.70
2023-01-26T09:09:02.547Z,5.50
2023-01-26T09:11:31.688Z,6.00
2023-01-26T09:13:59.496Z,5.70
2023-01-26T09:16:27.307Z,5.60
2023-01-26T09:18:55.269Z,5.20
2023-01-26T09:21:26.156Z,5.30
2023-01-26T09:23:56.942Z,4.60
2023-01-26T09:26:25.729Z,5.20
2023-01-26T09:28:53.547Z,5.50
2023-01-26T09:31:21.565Z,5.50
2023-01-26T09:33:50.277Z,5.00
2023-01-26T09:36:18.957Z,5.10
2023-01-26T09:38:46.843Z,5.50
2023-01-26T09:41:14.660Z,5.90
2023-01-26T09:43:42.821Z,5.00
2023-01-26T09:46:44.340Z,5.70
2023-01-26T09:49:48.679Z,5.30
2023-01-26T09:52:35.698Z,4.80
2023-01-26T09:55:15.665Z,5.00
2023-01-26T09:58:03.148Z,4.80
2023-01-26T10:00:44.034Z,5.10
2023-01-26T10:03:42.576Z,5.20
2023-01-26T10:06:28.323Z,5.00
2023-01-26T10:09:21.805Z,5.40
2023-01-26T10:11:56.169Z,5.20
2023-01-26T10:14:40.458Z,5.20
2023-01-26T10:17:24.222Z,5.20
2023-01-26T10:20:23.553Z,5.20
2023-01-26T10:23:16.693Z,5.30
2023-01-26T10:25:48.350Z,5.20
2023-01-26T10:28:36.641Z,4.70
2023-01-26T10:31:12.369Z,4.40
2023-01-26T10:33:50.020Z,4.90
2023-01-26T10:36:19.095Z,4.90
2023-01-26T10:38:48.109Z,5.60
2023-01-26T10:41:19.631Z,5.10
2023-01-26T10:43:54.071Z,5.70
2023-01-26T10:46:32.616Z,5.40
2023-01-26T10:49:15.435Z,5.50
2023-01-26T10:51:48.466Z,5.50
2023-01-26T10:56:59.407Z,5.40
2023-01-26T10:59:32.187Z,5.00
2023-01-26T11:02:32.676Z,5.70
2023-01-26T11:05:27.672Z,5.20
2023-01-26T11:10:53.185Z,5.10
2023-01-26T11:13:21.743Z,5.00
2023-01-26T11:16:01.381Z,5.10
2023-01-26T11:19:08.759Z,5.30
2023-01-26T11:21:47.005Z,6.20
2023-01-26T11:24:34.072Z,6.10
2023-01-26T11:27:20.072Z,5.90
2023-01-26T11:30:06.703Z,6.00
2023-01-26T11:32:46.937Z,7.20
2023-01-26T11:35:50.868Z,7.00
2023-01-26T11:38:27.525Z,7.20
2023-01-26T11:41:01.066Z,7.00
2023-01-26T11:43:49.765Z,7.10
2023-01-26T11:46:40.104Z,6.10
2023-01-26T11:49:29.905Z,5.60
2023-01-26T11:52:13.599Z,5.60
2023-01-26T11:55:01.433Z,5.70
2023-01-26T11:57:59.019Z,5.50
2023-01-26T12:00:53.001Z,5.50
2023-01-26T12:03:35.391Z,5.70
2023-01-26T12:06:14.901Z,5.40
2023-01-26T12:09:01.442Z,5.50
2023-01-26T12:11:50.817Z,4.90
2023-01-26T12:14:26.470Z,5.40
2023-01-26T12:17:26.151Z,5.00
2023-01-26T12:20:15.983Z,5.30
2023-01-26T12:22:54.171Z,5.40
2023-01-26T12:25:58.559Z,5.00
2023-01-26T12:28:34.821Z,4.90
2023-01-26T12:31:26.824Z,4.70
2023-01-26T12:33:57.060Z,4.80
2023-01-26T12:36:56.620Z,4.80
2023-01-26T12:39:40.241Z,5.20
2023-01-26T12:42:38.919Z,5.10
2023-01-26T12:45:18.631Z,4.70
2023-01-26T12:47:53.473Z,4.60
2023-01-26T12:50:24.154Z,4.60
2023-01-26T12:53:13.119Z,4.90
2023-01-26T12:55:56.857Z,4.80
2023-01-26T12:58:33.112Z,5.10
2023-01-26T13:01:07.591Z,4.50
2023-01-26T13:03:41.710Z,5.00
2023-01-26T13:06:12.233Z,4.70
2023-01-26T13:08:57.764Z,4.80
2023-01-26T13:11:53.780Z,5.10
2023-01-26T13:14:32.598Z,5.10
2023-01-26T13:17:16.561Z,5.00
2023-01-26T13:22:18.456Z,5.20
2023-01-26T13:24:48.729Z,4.90
2023-01-26T13:27:39.324Z,4.80
2023-01-26T13:30:23.248Z,4.90
2023-01-26T13:33:08.525Z,5.10
2023-01-26T13:35:38.035Z,4.80
2023-01-26T13:38:29.707Z,5.10
2023-01-26T13:40:58.897Z,5.20
2023-01-26T13:43:45.445Z,4.70
2023-01-26T13:46:38.094Z,5.30
2023-01-26T13:49:06.314Z,5.20
2023-01-26T13:51:36.016Z,5.20
2023-01-26T13:54:06.777Z,4.70
2023-01-26T13:56:39.176Z,5.00
2023-01-26T13:59:15.970Z,5.10
2023-01-26T14:01:49.556Z,5.20
2023-01-26T14:04:26.830Z,4.90
2023-01-26T14:06:58.871Z,4.80
2023-01-26T14:09:29.006Z,5.10
2023-01-26T14:12:01.086Z,5.20
2023-01-26T14:14:33.753Z,5.30
2023-01-26T14:17:09.037Z,5.40
2023-01-26T14:19:41.979Z,5.30
2023-01-26T14:22:13.457Z,5.20
2023-01-26T14:24:43.089Z,5.20
2023-01-26T14:27:38.820Z,5.80
2023-01-26T14:30:31.864Z,5.70
2023-01-26T14:33:05.024Z,5.60
2023-01-26T14:35:33.768Z,5.80
2023-01-26T14:38:20.272Z,5.80
2023-01-26T14:40:51.101Z,5.30
2023-01-26T14:43:19.982Z,5.10
2023-01-26T14:46:03.366Z,4.80
2023-01-26T14:48:50.907Z,5.40
2023-01-26T14:51:22.862Z,5.40
2023-01-26T14:54:04.605Z,5.40
2023-01-26T14:56:38.147Z,5.30
2023-01-26T14:59:09.512Z,5.20
2023-01-26T15:01:37.411Z,5.00
2023-01-26T15:04:21.130Z,5.00
2023-01-26T15:06:49.024Z,5.20
2023-01-26T15:09:27.468Z,5.00
2023-01-26T15:12:15.544Z,5.30
2023-01-26T15:14:46.097Z,5.00
2023-01-26T15:17:45.810Z,5.70
2023-01-26T15:20:29.515Z,6.30
2023-01-26T15:22:57.828Z,5.20
2023-01-26T15:25:28.857Z,5.50
2023-01-26T15:27:59.526Z,5.20
2023-01-26T15:30:31.355Z,5.30
2023-01-26T15:32:59.946Z,5.50
2023-01-26T15:35:30.590Z,4.90
2023-01-26T15:38:14.336Z,5.10
2023-01-26T15:40:42.097Z,5.40
2023-01-26T15:43:25.865Z,4.70
2023-01-26T15:45:58.449Z,5.30
2023-01-26T15:48:26.822Z,5.30
2023-01-26T15:50:54.602Z,5.00
2023-01-26T15:53:22.825Z,5.20
2023-01-26T15:55:55.926Z,5.20
2023-01-26T15:58:25.086Z,6.20
2023-01-26T16:00:53.560Z,7.50
2023-01-26T16:03:22.634Z,5.30
2023-01-26T16:05:50.562Z,5.20
2023-01-26T16:08:19.116Z,5.10
2023-01-26T16:10:47.391Z,5.20
2023-01-26T16:13:17.957Z,5.00
2023-01-26T16:15:49.171Z,5.10
2023-01-26T16:18:17.984Z,5.30
2023-01-26T16:20:48.683Z,5.20
2023-01-26T16:23:25.023Z,5.30
2023-01-26T16:25:53.563Z,5.20
2023-01-26T16:28:22.125Z,5.20
2023-01-26T16:30:51.319Z,5.20
2023-01-26T16:33:24.522Z,5.40
2023-01-26T16:35:53.005Z,5.50
2023-01-26T16:38:20.789Z,4.90
2023-01-26T16:40:49.364Z,5.10
2023-01-26T16:43:24.238Z,5.30
2023-01-26T16:45:52.926Z,5.00
2023-01-26T16:48:22.278Z,4.90
2023-01-26T16:50:52.914Z,5.00
2023-01-26T16:53:29.315Z,4.80
2023-01-26T16:55:57.264Z,5.30
2023-01-26T16:58:30.381Z,5.20
2023-01-26T17:00:58.346Z,5.60
2023-01-26T17:03:26.229Z,5.10
2023-01-26T17:05:56.124Z,6.10
2023-01-26T17:08:24.388Z,7.60
2023-01-26T17:11:02.184Z,6.80
2023-01-26T17:13:31.678Z,5.50
2023-01-26T17:15:59.647Z,6.20
2023-01-26T17:18:27.564Z,5.50
2023-01-26T17:21:02.118Z,5.20
2023-01-26T17:23:31.361Z,5.20
2023-01-26T17:26:00.693Z,5.60
2023-01-26T17:28:28.542Z,5.50
2023-01-26T17:30:56.415Z,5.60
2023-01-26T17:33:24.420Z,5.10
2023-01-26T17:36:08.905Z,5.00
2023-01-26T17:38:37.028Z,5.50
2023-01-26T17:41:05.510Z,5.30
2023-01-26T17:43:33.943Z,5.50
2023-01-26T17:46:07.576Z,5.60
2023-01-26T17:48:37.587Z,6.40
2023-01-26T17:51:07.757Z,6.90
2023-01-26T17:53:43.470Z,6.10
2023-01-26T17:56:13.911Z,5.60
2023-01-26T17:58:42.077Z,5.20
2023-01-26T18:01:10.254Z,5.10
2023-01-26T18:03:42.316Z,4.90
2023-01-26T18:06:10.835Z,5.40
2023-01-26T18:08:39.690Z,5.10
2023-01-26T18:11:10.257Z,5.40
2023-01-26T18:13:39.467Z,5.40
2023-01-26T18:16:09.980Z,5.40
2023-01-26T18:18:37.776Z,5.40
2023-01-26T18:21:22.974Z,5.30
2023-01-26T18:23:53.513Z,5.70
2023-01-26T18:26:24.137Z,5.80
2023-01-26T18:28:52.418Z,6.40
2023-01-26T18:31:26.401Z,5.70
2023-01-26T18:33:56.179Z,6.20
2023-01-26T18:36:24.753Z,5.70
2023-01-26T18:38:59.587Z,6.10
2023-01-26T18:41:30.518Z,5.60
2023-01-26T18:43:59.731Z,5.60
2023-01-26T18:46:30.688Z,5.80
2023-01-26T18:49:03.422Z,5.50
2023-01-26T18:51:34.718Z,5.70
2023-01-26T18:54:04.260Z,6.00
2023-01-26T18:56:32.433Z,5.90
2023-01-26T18:59:00.246Z,6.20
2023-01-26T19:01:28.172Z,5.60
2023-01-26T19:03:57.735Z,6.20
2023-01-26T19:06:26.508Z,5.70
2023-01-26T19:09:01.148Z,5.10
2023-01-26T19:11:32.087Z,5.60
2023-01-26T19:14:01.242Z,5.80
2023-01-26T19:16:29.853Z,5.30
2023-01-26T19:18:57.847Z,4.90
2023-01-26T19:21:28.301Z,4.90
2023-01-26T19:23:58.919Z,4.70
2023-01-26T19:26:29.786Z,4.50
2023-01-26T19:28:58.867Z,5.20
2023-01-26T19:31:27.859Z,4.80
2023-01-26T19:33:58.323Z,4.40
2023-01-26T19:36:27.716Z,5.00
2023-01-26T19:38:55.515Z,5.00
2023-01-26T19:41:24.174Z,5.90
2023-01-26T19:43:52.023Z,4.70
2023-01-26T19:46:21.365Z,5.20
2023-01-26T19:48:49.434Z,5.40
2023-01-26T19:51:27.127Z,5.00
2023-01-26T19:53:58.017Z,5.10
2023-01-26T19:56:35.888Z,6.00
2023-01-26T19:59:07.384Z,5.70
2023-01-26T20:01:35.270Z,5.10
2023-01-26T20:04:13.587Z,5.00
2023-01-26T20:06:44.245Z,5.10
2023-01-26T20:09:12.016Z,5.30
2023-01-26T20:11:40.354Z,5.60
2023-01-26T20:14:10.812Z,5.40
2023-01-26T20:16:39.719Z,5.20
2023-01-26T20:19:07.740Z,5.10
2023-01-26T20:21:35.725Z,5.10
2023-01-26T20:24:06.216Z,5.20
2023-01-26T20:26:35.674Z,5.30
2023-01-26T20:29:04.621Z,5.50
2023-01-26T20:31:33.140Z,4.70
2023-01-26T20:34:01.976Z,5.20
2023-01-26T20:36:31.238Z,5.10
2023-01-26T20:38:59.798Z,5.30
2023-01-26T20:41:29.818Z,5.20
2023-01-26T20:44:02.000Z,5.30
2023-01-26T20:46:41.337Z,5.30
2023-01-26T20:49:14.437Z,5.50
2023-01-26T20:51:45.254Z,5.10
2023-01-26T20:54:15.670Z,5.60
2023-01-26T20:56:48.884Z,5.40
2023-01-26T20:59:18.874Z,5.50
2023-01-26T21:01:46.844Z,5.50
2023-01-26T21:04:14.683Z,5.70
2023-01-26T21:06:42.470Z,6.90
2023-01-26T21:09:12.734Z,6.70
2023-01-26T21:11:40.977Z,6.00
2023-01-26T21:14:12.636Z,6.80
2023-01-26T21:16:40.697Z,6.20
2023-01-26T21:19:08.690Z,6.90
2023-01-26T21:21:36.486Z,6.40
2023-01-26T21:24:04.805Z,6.50
2023-01-26T21:26:32.894Z,6.40
2023-01-26T21:29:01.164Z,6.40
2023-01-26T21:31:31.585Z,6.70
2023-01-26T21:34:00.712Z,6.70
2023-01-26T21:36:31.078Z,6.20
2023-01-26T21:39:00.194Z,5.80
2023-01-26T21:41:46.661Z,6.80
2023-01-26T21:44:17.385Z,6.10
2023-01-26T21:46:47.437Z,6.10
2023-01-26T21:49:16.102Z,6.60
2023-01-26T21:52:00.130Z,6.90
2023-01-26T21:54:29.930Z,7.00
2023-01-26T21:56:58.673Z,6.30
2023-01-26T21:59:26.652Z,6.40
2023-01-26T22:01:56.651Z,6.10
2023-01-26T22:04:30.250Z,6.10
2023-01-26T22:06:58.255Z,5.80
2023-01-26T22:09:26.165Z,5.10
2023-01-26T22:11:53.974Z,5.00
2023-01-26T22:14:26.057Z,5.10
2023-01-26T22:16:54.008Z,5.00
2023-01-26T22:19:21.799Z,5.30
2023-01-26T22:21:49.539Z,5.00
2023-01-26T22:24:18.088Z,5.30
2023-01-26T22:26:46.085Z,5.30
2023-01-26T22:29:14.533Z,5.10
2023-01-26T22:31:42.391Z,5.40
2023-01-26T22:34:13.153Z,5.10
2023-01-26T22:36:41.306Z,4.90
2023-01-26T22:39:09.447Z,4.80
2023-01-26T22:41:37.664Z,4.90
2023-01-26T22:44:06.309Z,4.70
2023-01-26T22:46:35.053Z,4.50
2023-01-26T22:49:04.842Z,4.80
2023-01-26T22:51:36.966Z,4.40
2023-01-26T22:54:05.496Z,4.60
2023-01-26T22:56:33.795Z,4.90
2023-01-26T22:59:01.812Z,4.80
2023-01-26T23:01:33.051Z,4.70
2023-01-26T23:04:01.762Z,4.60
2023-01-26T23:06:30.092Z,4.80
2023-01-26T23:09:04.499Z,4.60
2023-01-26T23:11:32.619Z,5.00
2023-01-26T23:14:01.054Z,4.70
2023-01-26T23:16:29.754Z,4.80
2023-01-26T23:18:59.833Z,4.80
2023-01-26T23:21:28.844Z,4.60
2023-01-26T23:23:57.569Z,4.90
2023-01-26T23:26:25.574Z,4.40
2023-01-26T23:28:53.796Z,6.50
2023-01-26T23:31:21.700Z,5.00
2023-01-26T23:33:49.635Z,4.80
2023-01-26T23:36:17.552Z,4.60
2023-01-26T23:38:45.757Z,4.50
2023-01-26T23:41:14.056Z,5.00
2023-01-26T23:43:42.253Z,4.50
2023-01-26T23:46:11.536Z,4.60
2023-01-26T23:48:39.538Z,4.60
2023-01-26T23:51:09.764Z,4.50
2023-01-26T23:53:38.215Z,4.80
2023-01-26T23:56:23.898Z,4.70
2023-01-26T23:58:51.786Z,4.70
